sensor_id;sensor_type;location;lat;lon;timestamp;P1;durP1;ratioP1;P2;durP2;ratioP2
52796;SDS011;38666;43.348;12.584;2023-04-24T08:49:36;6.22;;;2.03;;
52796;SDS011;38666;43.348;12.584;2023-04-24T08:52:04;7.25;;;2.25;;
52796;SDS011;38666;43.348;12.584;2023-04-24T08:54:30;8.43;;;2.10;;
52796;SDS011;38666;43.348;12.584;2023-04-24T08:56:59;4.60;;;1.92;;
52796;SDS011;38666;43.348;12.584;2023-04-24T08:59:29;5.90;;;2.13;;
52796;SDS011;38666;43.348;12.584;2023-04-24T09:01:55;9.13;;;2.38;;
52796;SDS011;38666;43.348;12.584;2023-04-24T09:04:22;5.82;;;2.15;;
52796;SDS011;38666;43.348;12.584;2023-04-24T09:06:49;9.50;;;2.22;;
52796;SDS011;38666;43.348;12.584;2023-04-24T09:09:16;7.88;;;2.05;;
52796;SDS011;38666;43.348;12.584;2023-04-24T09:11:43;8.77;;;2.30;;
52796;SDS011;38666;43.348;12.584;2023-04-24T09:14:09;7.55;;;2.50;;
52796;SDS011;38666;43.348;12.584;2023-04-24T09:16:35;6.22;;;1.90;;
52796;SDS011;38666;43.348;12.584;2023-04-24T09:19:01;8.13;;;2.10;;
52796;SDS011;38666;43.348;12.584;2023-04-24T09:21:31;4.40;;;1.80;;
52796;SDS011;38666;43.348;12.584;2023-04-24T09:23:59;7.03;;;3.00;;
52796;SDS011;38666;43.348;12.584;2023-04-24T09:26:26;7.17;;;2.00;;
52796;SDS011;38666;43.348;12.584;2023-04-24T09:28:56;8.20;;;2.33;;
52796;SDS011;38666;43.348;12.584;2023-04-24T09:31:21;5.20;;;1.67;;
52796;SDS011;38666;43.348;12.584;2023-04-24T09:33:54;4.68;;;2.10;;
52796;SDS011;38666;43.348;12.584;2023-04-24T09:36:28;4.90;;;1.90;;
52796;SDS011;38666;43.348;12.584;2023-04-24T09:39:00;4.60;;;1.80;;
52796;SDS011;38666;43.348;12.584;2023-04-24T09:41:26;10.32;;;1.73;;
52796;SDS011;38666;43.348;12.584;2023-04-24T09:43:53;5.18;;;1.40;;
52796;SDS011;38666;43.348;12.584;2023-04-24T09:46:20;7.60;;;1.40;;
52796;SDS011;38666;43.348;12.584;2023-04-24T09:48:47;6.13;;;2.22;;
52796;SDS011;38666;43.348;12.584;2023-04-24T09:51:13;8.30;;;2.30;;
52796;SDS011;38666;43.348;12.584;2023-04-24T09:53:44;7.55;;;2.25;;
52796;SDS011;38666;43.348;12.584;2023-04-24T09:56:11;7.50;;;2.30;;
52796;SDS011;38666;43.348;12.584;2023-04-24T09:58:40;12.52;;;2.55;;
52796;SDS011;38666;43.348;12.584;2023-04-24T10:01:05;5.53;;;1.83;;
52796;SDS011;38666;43.348;12.584;2023-04-24T10:03:32;5.70;;;1.73;;
52796;SDS011;38666;43.348;12.584;2023-04-24T10:06:01;6.30;;;1.50;;
52796;SDS011;38666;43.348;12.584;2023-04-24T10:08:33;8.00;;;2.15;;
52796;SDS011;38666;43.348;12.584;2023-04-24T10:11:00;7.72;;;1.70;;
52796;SDS011;38666;43.348;12.584;2023-04-24T10:13:30;5.68;;;2.15;;
52796;SDS011;38666;43.348;12.584;2023-04-24T10:15:59;8.93;;;2.85;;
52796;SDS011;38666;43.348;12.584;2023-04-24T10:18:50;7.90;;;2.53;;
52796;SDS011;38666;43.348;12.584;2023-04-24T10:21:16;9.48;;;1.58;;
52796;SDS011;38666;43.348;12.584;2023-04-24T10:37:21;5.60;;;1.50;;
52796;SDS011;38666;43.348;12.584;2023-04-24T10:39:48;16.05;;;2.47;;
52796;SDS011;38666;43.348;12.584;2023-04-24T10:42:16;5.78;;;2.00;;
52796;SDS011;38666;43.348;12.584;2023-04-24T10:44:42;7.68;;;2.13;;
52796;SDS011;38666;43.348;12.584;2023-04-24T10:47:12;5.07;;;1.55;;
52796;SDS011;38666;43.348;12.584;2023-04-24T10:49:39;12.00;;;2.10;;
52796;SDS011;38666;43.348;12.584;2023-04-24T10:52:05;4.47;;;1.67;;
52796;SDS011;38666;43.348;12.584;2023-04-24T10:54:49;7.33;;;1.53;;
52796;SDS011;38666;43.348;12.584;2023-04-24T10:59:47;4.53;;;1.15;;
52796;SDS011;38666;43.348;12.584;2023-04-24T11:02:37;4.85;;;2.10;;
52796;SDS011;38666;43.348;12.584;2023-04-24T11:05:08;5.38;;;1.55;;
52796;SDS011;38666;43.348;12.584;2023-04-24T11:10:43;8.13;;;1.02;;
52796;SDS011;38666;43.348;12.584;2023-04-24T11:13:09;3.45;;;0.82;;
52796;SDS011;38666;43.348;12.584;2023-04-24T11:15:35;2.50;;;0.60;;
52796;SDS011;38666;43.348;12.584;2023-04-24T11:18:00;5.63;;;1.30;;
52796;SDS011;38666;43.348;12.584;2023-04-24T11:20:26;2.78;;;0.60;;
52796;SDS011;38666;43.348;12.584;2023-04-24T11:22:52;3.07;;;1.07;;
52796;SDS011;38666;43.348;12.584;2023-04-24T11:25:19;6.53;;;1.20;;
52796;SDS011;38666;43.348;12.584;2023-04-24T11:27:47;9.68;;;1.23;;
52796;SDS011;38666;43.348;12.584;2023-04-24T11:30:18;3.50;;;0.93;;
52796;SDS011;38666;43.348;12.584;2023-04-24T11:32:47;7.15;;;1.13;;
52796;SDS011;38666;43.348;12.584;2023-04-24T11:35:19;9.18;;;1.10;;
52796;SDS011;38666;43.348;12.584;2023-04-24T11:37:48;3.27;;;0.70;;
52796;SDS011;38666;43.348;12.584;2023-04-24T11:40:15;5.73;;;0.80;;
52796;SDS011;38666;43.348;12.584;2023-04-24T11:42:42;3.13;;;1.00;;
52796;SDS011;38666;43.348;12.584;2023-04-24T11:45:10;3.30;;;0.90;;
52796;SDS011;38666;43.348;12.584;2023-04-24T11:47:37;4.10;;;1.00;;
52796;SDS011;38666;43.348;12.584;2023-04-24T11:50:04;8.52;;;1.30;;
52796;SDS011;38666;43.348;12.584;2023-04-24T11:52:33;2.35;;;1.08;;
52796;SDS011;38666;43.348;12.584;2023-04-24T11:55:01;2.65;;;0.90;;
52796;SDS011;38666;43.348;12.584;2023-04-24T11:57:27;7.20;;;1.30;;
52796;SDS011;38666;43.348;12.584;2023-04-24T11:59:58;3.20;;;1.00;;
52796;SDS011;38666;43.348;12.584;2023-04-24T12:02:24;11.67;;;1.80;;
52796;SDS011;38666;43.348;12.584;2023-04-24T12:04:51;4.32;;;1.17;;
52796;SDS011;38666;43.348;12.584;2023-04-24T12:07:17;3.13;;;0.95;;
52796;SDS011;38666;43.348;12.584;2023-04-24T12:09:47;4.27;;;1.50;;
52796;SDS011;38666;43.348;12.584;2023-04-24T12:12:15;7.75;;;1.25;;
52796;SDS011;38666;43.348;12.584;2023-04-24T12:17:12;3.90;;;1.30;;
52796;SDS011;38666;43.348;12.584;2023-04-24T12:19:44;4.55;;;1.05;;
52796;SDS011;38666;43.348;12.584;2023-04-24T12:22:10;3.83;;;0.97;;
52796;SDS011;38666;43.348;12.584;2023-04-24T12:24:54;5.55;;;1.08;;
52796;SDS011;38666;43.348;12.584;2023-04-24T12:27:24;3.90;;;0.82;;
52796;SDS011;38666;43.348;12.584;2023-04-24T12:29:56;4.00;;;0.93;;
52796;SDS011;38666;43.348;12.584;2023-04-24T12:32:23;4.97;;;0.90;;
52796;SDS011;38666;43.348;12.584;2023-04-24T12:34:50;3.55;;;0.77;;
52796;SDS011;38666;43.348;12.584;2023-04-24T12:37:16;3.30;;;0.85;;
52796;SDS011;38666;43.348;12.584;2023-04-24T12:42:34;5.77;;;1.30;;
52796;SDS011;38666;43.348;12.584;2023-04-24T12:45:02;6.03;;;1.52;;
52796;SDS011;38666;43.348;12.584;2023-04-24T12:47:32;3.15;;;1.08;;
52796;SDS011;38666;43.348;12.584;2023-04-24T12:49:58;3.63;;;0.93;;
52796;SDS011;38666;43.348;12.584;2023-04-24T12:52:24;4.47;;;1.15;;
52796;SDS011;38666;43.348;12.584;2023-04-24T12:54:54;4.43;;;0.80;;
52796;SDS011;38666;43.348;12.584;2023-04-24T12:57:22;4.23;;;0.97;;
52796;SDS011;38666;43.348;12.584;2023-04-24T12:59:47;3.47;;;0.90;;
52796;SDS011;38666;43.348;12.584;2023-04-24T13:02:13;4.57;;;0.93;;
52796;SDS011;38666;43.348;12.584;2023-04-24T13:04:42;5.57;;;0.90;;
52796;SDS011;38666;43.348;12.584;2023-04-24T13:07:07;5.67;;;1.10;;
52796;SDS011;38666;43.348;12.584;2023-04-24T13:09:34;5.50;;;1.47;;
52796;SDS011;38666;43.348;12.584;2023-04-24T13:12:00;4.30;;;1.50;;
52796;SDS011;38666;43.348;12.584;2023-04-24T13:14:25;8.05;;;2.38;;
52796;SDS011;38666;43.348;12.584;2023-04-24T13:16:51;10.67;;;3.90;;
52796;SDS011;38666;43.348;12.584;2023-04-24T13:19:17;5.40;;;1.13;;
52796;SDS011;38666;43.348;12.584;2023-04-24T13:21:43;7.43;;;3.28;;
52796;SDS011;38666;43.348;12.584;2023-04-24T13:24:08;8.33;;;1.33;;
52796;SDS011;38666;43.348;12.584;2023-04-24T13:26:34;6.53;;;1.45;;
52796;SDS011;38666;43.348;12.584;2023-04-24T13:29:00;5.37;;;2.10;;
52796;SDS011;38666;43.348;12.584;2023-04-24T13:31:25;7.00;;;1.80;;
52796;SDS011;38666;43.348;12.584;2023-04-24T13:33:51;5.60;;;1.40;;
52796;SDS011;38666;43.348;12.584;2023-04-24T13:36:16;5.00;;;1.55;;
52796;SDS011;38666;43.348;12.584;2023-04-24T13:38:42;7.20;;;1.17;;
52796;SDS011;38666;43.348;12.584;2023-04-24T13:41:09;4.57;;;1.17;;
52796;SDS011;38666;43.348;12.584;2023-04-24T13:43:35;5.97;;;1.50;;
52796;SDS011;38666;43.348;12.584;2023-04-24T13:46:01;6.90;;;1.20;;
52796;SDS011;38666;43.348;12.584;2023-04-24T13:48:28;5.88;;;1.77;;
52796;SDS011;38666;43.348;12.584;2023-04-24T13:50:54;4.20;;;1.63;;
52796;SDS011;38666;43.348;12.584;2023-04-24T13:53:19;4.23;;;1.23;;
52796;SDS011;38666;43.348;12.584;2023-04-24T13:55:45;13.33;;;1.87;;
52796;SDS011;38666;43.348;12.584;2023-04-24T13:58:10;15.00;;;2.53;;
52796;SDS011;38666;43.348;12.584;2023-04-24T14:00:36;11.90;;;4.13;;
52796;SDS011;38666;43.348;12.584;2023-04-24T14:03:01;7.03;;;1.53;;
52796;SDS011;38666;43.348;12.584;2023-04-24T14:05:26;7.60;;;2.07;;
52796;SDS011;38666;43.348;12.584;2023-04-24T14:07:52;6.43;;;1.17;;
52796;SDS011;38666;43.348;12.584;2023-04-24T14:10:17;4.90;;;0.90;;
52796;SDS011;38666;43.348;12.584;2023-04-24T14:12:43;3.83;;;1.13;;
52796;SDS011;38666;43.348;12.584;2023-04-24T14:15:09;9.17;;;1.83;;
52796;SDS011;38666;43.348;12.584;2023-04-24T14:17:35;5.57;;;1.13;;
52796;SDS011;38666;43.348;12.584;2023-04-24T14:20:01;7.07;;;1.37;;
52796;SDS011;38666;43.348;12.584;2023-04-24T14:22:26;2.42;;;0.52;;
52796;SDS011;38666;43.348;12.584;2023-04-24T14:24:52;6.97;;;1.25;;
52796;SDS011;38666;43.348;12.584;2023-04-24T14:27:17;6.60;;;1.60;;
52796;SDS011;38666;43.348;12.584;2023-04-24T14:29:43;10.97;;;1.57;;
52796;SDS011;38666;43.348;12.584;2023-04-24T14:32:10;5.13;;;1.45;;
52796;SDS011;38666;43.348;12.584;2023-04-24T14:34:35;7.77;;;1.40;;
52796;SDS011;38666;43.348;12.584;2023-04-24T14:37:01;12.00;;;1.80;;
52796;SDS011;38666;43.348;12.584;2023-04-24T14:39:26;4.83;;;1.37;;
52796;SDS011;38666;43.348;12.584;2023-04-24T14:41:52;8.50;;;1.23;;
52796;SDS011;38666;43.348;12.584;2023-04-24T14:44:17;7.63;;;2.03;;
52796;SDS011;38666;43.348;12.584;2023-04-24T14:46:43;8.17;;;1.33;;
52796;SDS011;38666;43.348;12.584;2023-04-24T14:49:08;4.03;;;1.10;;
52796;SDS011;38666;43.348;12.584;2023-04-24T14:51:35;4.88;;;1.40;;
52796;SDS011;38666;43.348;12.584;2023-04-24T14:54:01;6.07;;;1.40;;
52796;SDS011;38666;43.348;12.584;2023-04-24T14:56:26;5.73;;;1.17;;
52796;SDS011;38666;43.348;12.584;2023-04-24T14:58:52;4.77;;;1.17;;
52796;SDS011;38666;43.348;12.584;2023-04-24T15:01:18;11.10;;;1.23;;
52796;SDS011;38666;43.348;12.584;2023-04-24T15:03:43;7.30;;;1.10;;
52796;SDS011;38666;43.348;12.584;2023-04-24T15:06:09;5.70;;;1.33;;
52796;SDS011;38666;43.348;12.584;2023-04-24T15:08:34;6.03;;;1.50;;
52796;SDS011;38666;43.348;12.584;2023-04-24T15:10:59;7.73;;;1.10;;
52796;SDS011;38666;43.348;12.584;2023-04-24T15:13:25;9.47;;;1.40;;
52796;SDS011;38666;43.348;12.584;2023-04-24T15:15:50;4.65;;;1.30;;
52796;SDS011;38666;43.348;12.584;2023-04-24T15:18:16;3.13;;;1.23;;
52796;SDS011;38666;43.348;12.584;2023-04-24T15:20:41;6.55;;;1.40;;
52796;SDS011;38666;43.348;12.584;2023-04-24T15:23:08;5.05;;;1.02;;
52796;SDS011;38666;43.348;12.584;2023-04-24T15:25:34;14.45;;;1.40;;
52796;SDS011;38666;43.348;12.584;2023-04-24T15:27:59;10.05;;;1.50;;
52796;SDS011;38666;43.348;12.584;2023-04-24T15:30:25;6.97;;;1.80;;
52796;SDS011;38666;43.348;12.584;2023-04-24T15:32:51;6.00;;;1.00;;
52796;SDS011;38666;43.348;12.584;2023-04-24T15:35:16;4.88;;;1.25;;
52796;SDS011;38666;43.348;12.584;2023-04-24T15:37:42;8.38;;;1.73;;
52796;SDS011;38666;43.348;12.584;2023-04-24T15:40:08;4.80;;;1.37;;
52796;SDS011;38666;43.348;12.584;2023-04-24T15:42:36;9.18;;;1.70;;
52796;SDS011;38666;43.348;12.584;2023-04-24T15:45:01;12.77;;;1.50;;
52796;SDS011;38666;43.348;12.584;2023-04-24T15:47:28;10.63;;;1.20;;
52796;SDS011;38666;43.348;12.584;2023-04-24T15:49:54;7.43;;;1.63;;
52796;SDS011;38666;43.348;12.584;2023-04-24T15:52:20;2.53;;;0.70;;
52796;SDS011;38666;43.348;12.584;2023-04-24T15:54:46;6.00;;;1.20;;
52796;SDS011;38666;43.348;12.584;2023-04-24T15:57:11;7.35;;;1.33;;
52796;SDS011;38666;43.348;12.584;2023-04-24T15:59:37;9.60;;;1.33;;
52796;SDS011;38666;43.348;12.584;2023-04-24T16:02:03;5.97;;;1.63;;
52796;SDS011;38666;43.348;12.584;2023-04-24T16:04:29;5.10;;;2.20;;
52796;SDS011;38666;43.348;12.584;2023-04-24T16:06:55;3.53;;;0.77;;
52796;SDS011;38666;43.348;12.584;2023-04-24T16:09:21;5.70;;;1.02;;
52796;SDS011;38666;43.348;12.584;2023-04-24T16:11:47;3.90;;;0.90;;
52796;SDS011;38666;43.348;12.584;2023-04-24T16:14:13;8.10;;;1.00;;
52796;SDS011;38666;43.348;12.584;2023-04-24T16:16:38;16.83;;;4.03;;
52796;SDS011;38666;43.348;12.584;2023-04-24T16:19:03;18.57;;;6.53;;
52796;SDS011;38666;43.348;12.584;2023-04-24T16:21:30;9.82;;;3.40;;
52796;SDS011;38666;43.348;12.584;2023-04-24T16:23:56;7.80;;;1.70;;
52796;SDS011;38666;43.348;12.584;2023-04-24T16:26:21;13.90;;;4.70;;
52796;SDS011;38666;43.348;12.584;2023-04-24T16:28:47;9.30;;;2.45;;
52796;SDS011;38666;43.348;12.584;2023-04-24T16:31:12;9.77;;;2.13;;
52796;SDS011;38666;43.348;12.584;2023-04-24T16:33:38;7.43;;;1.90;;
52796;SDS011;38666;43.348;12.584;2023-04-24T16:36:04;7.38;;;2.25;;
52796;SDS011;38666;43.348;12.584;2023-04-24T16:38:30;6.87;;;2.07;;
52796;SDS011;38666;43.348;12.584;2023-04-24T16:40:55;14.82;;;6.80;;
52796;SDS011;38666;43.348;12.584;2023-04-24T16:43:21;6.40;;;2.10;;
52796;SDS011;38666;43.348;12.584;2023-04-24T16:45:46;7.57;;;2.00;;
52796;SDS011;38666;43.348;12.584;2023-04-24T16:48:11;9.07;;;2.20;;
52796;SDS011;38666;43.348;12.584;2023-04-24T16:50:37;9.10;;;1.90;;
52796;SDS011;38666;43.348;12.584;2023-04-24T16:53:02;9.32;;;2.35;;
52796;SDS011;38666;43.348;12.584;2023-04-24T16:55:28;8.52;;;1.65;;
52796;SDS011;38666;43.348;12.584;2023-04-24T16:57:53;9.23;;;2.17;;
52796;SDS011;38666;43.348;12.584;2023-04-24T17:00:19;6.23;;;1.93;;
52796;SDS011;38666;43.348;12.584;2023-04-24T17:02:44;8.40;;;1.27;;
52796;SDS011;38666;43.348;12.584;2023-04-24T17:05:13;12.30;;;2.08;;
52796;SDS011;38666;43.348;12.584;2023-04-24T17:07:39;6.55;;;1.48;;
52796;SDS011;38666;43.348;12.584;2023-04-24T17:10:05;8.48;;;1.92;;
52796;SDS011;38666;43.348;12.584;2023-04-24T17:12:33;7.10;;;2.60;;
52796;SDS011;38666;43.348;12.584;2023-04-24T17:14:58;7.60;;;2.10;;
52796;SDS011;38666;43.348;12.584;2023-04-24T17:17:24;9.35;;;2.65;;
52796;SDS011;38666;43.348;12.584;2023-04-24T17:19:49;8.97;;;3.63;;
52796;SDS011;38666;43.348;12.584;2023-04-24T17:22:15;16.15;;;4.82;;
52796;SDS011;38666;43.348;12.584;2023-04-24T17:24:41;14.43;;;4.10;;
52796;SDS011;38666;43.348;12.584;2023-04-24T17:27:07;8.88;;;2.40;;
52796;SDS011;38666;43.348;12.584;2023-04-24T17:29:32;12.13;;;3.20;;
52796;SDS011;38666;43.348;12.584;2023-04-24T17:31:58;15.55;;;6.65;;
52796;SDS011;38666;43.348;12.584;2023-04-24T17:34:23;25.37;;;7.40;;
52796;SDS011;38666;43.348;12.584;2023-04-24T17:36:48;16.80;;;7.83;;
52796;SDS011;38666;43.348;12.584;2023-04-24T17:39:14;34.30;;;14.13;;
52796;SDS011;38666;43.348;12.584;2023-04-24T17:41:40;13.73;;;4.85;;
52796;SDS011;38666;43.348;12.584;2023-04-24T17:44:06;15.43;;;4.65;;
52796;SDS011;38666;43.348;12.584;2023-04-24T17:46:32;15.93;;;5.78;;
52796;SDS011;38666;43.348;12.584;2023-04-24T17:48:58;15.70;;;6.63;;
52796;SDS011;38666;43.348;12.584;2023-04-24T17:51:24;15.93;;;4.47;;
52796;SDS011;38666;43.348;12.584;2023-04-24T17:53:50;15.57;;;4.95;;
52796;SDS011;38666;43.348;12.584;2023-04-24T17:56:16;15.95;;;6.95;;
52796;SDS011;38666;43.348;12.584;2023-04-24T17:58:42;12.38;;;3.55;;
52796;SDS011;38666;43.348;12.584;2023-04-24T18:01:07;8.23;;;2.97;;
52796;SDS011;38666;43.348;12.584;2023-04-24T18:03:33;21.10;;;6.93;;
52796;SDS011;38666;43.348;12.584;2023-04-24T18:05:59;12.33;;;4.37;;
52796;SDS011;38666;43.348;12.584;2023-04-24T18:08:24;12.77;;;4.23;;
52796;SDS011;38666;43.348;12.584;2023-04-24T18:10:50;17.00;;;7.40;;
52796;SDS011;38666;43.348;12.584;2023-04-24T18:13:15;17.07;;;5.63;;
52796;SDS011;38666;43.348;12.584;2023-04-24T18:15:41;16.97;;;6.33;;
52796;SDS011;38666;43.348;12.584;2023-04-24T18:18:07;24.55;;;6.60;;
52796;SDS011;38666;43.348;12.584;2023-04-24T18:20:33;22.88;;;10.45;;
52796;SDS011;38666;43.348;12.584;2023-04-24T18:22:59;25.33;;;9.60;;
52796;SDS011;38666;43.348;12.584;2023-04-24T18:25:24;31.53;;;11.03;;
52796;SDS011;38666;43.348;12.584;2023-04-24T18:27:50;19.73;;;6.25;;
52796;SDS011;38666;43.348;12.584;2023-04-24T18:30:18;25.02;;;8.80;;
52796;SDS011;38666;43.348;12.584;2023-04-24T18:32:45;21.25;;;7.70;;
52796;SDS011;38666;43.348;12.584;2023-04-24T18:35:12;14.43;;;4.93;;
52796;SDS011;38666;43.348;12.584;2023-04-24T18:37:38;12.73;;;4.23;;
52796;SDS011;38666;43.348;12.584;2023-04-24T18:40:04;12.80;;;4.15;;
52796;SDS011;38666;43.348;12.584;2023-04-24T18:42:30;16.00;;;4.18;;
52796;SDS011;38666;43.348;12.584;2023-04-24T18:44:56;16.67;;;4.88;;
52796;SDS011;38666;43.348;12.584;2023-04-24T18:47:25;13.60;;;4.07;;
52796;SDS011;38666;43.348;12.584;2023-04-24T18:49:52;24.45;;;5.88;;
